x

North Channel East (45154) Wave Buoy

8:00am - Sun 19th Nov 2017 All times are CST. -6 hours from GMT.

  • Sig Wave height 0.3ft
  • Peak Period 10s
  • Wind
    7mph, 11mph gusts
  • Sea Temp 37°f
  • Air Temp 38°f
  • Sea Pressure 1007.2mb
  • North Channel East
  • North Channel East

More Historic Weather Station data

Upgrade to MSW Pro to gain access to the past 30 days of data for over 8000 Wavebouys and Weather Stations around the globe.

Join

Comparision Forecast

View Surf forecast
   
Sun 11/19 8:00am 0.3ft 10s 7 11 mph 1007.2mb 37f 38f
7:00am 0.7ft 11s 4 13 mph 1006.4mb 38f 37f
6:00am 1.3ft 11s 7 9 mph 1005.2mb 38f 37f
5:00am 1.6ft 11s 7 16 mph 1003.5mb 38f 38f
4:00am 1.6ft 11s 22 31 mph 1003mb 39f 38f
3:00am 1.6ft 11s 18 27 mph 1001.8mb 39f 39f
2:00am 1.6ft 11s 16 27 mph 1000.6mb 39f 40f
1:00am 2ft 11s 13 20 mph 999.6mb 39f 39f
12:00am 1.6ft 7s 13 20 mph 998.9mb 38f 38f
Sat 11/18 10:00pm 1ft 10s 11 18 mph 998.1mb 38f 39f
9:00pm 0.7ft 6s 9 13 mph 998.1mb 38f 38f
8:00pm 0.3ft 8s 7 11 mph 998.5mb 38f 38f
7:00pm 0.3ft 6s 4 9 mph 998.4mb 38f 38f
5:00pm 0.7ft 11s 11 18 mph 997.4mb 38f 38f
4:00pm 0.7ft 11s 4 13 mph 997.3mb 38f 39f
3:00pm 1.6ft 3s 7 16 mph 997.3mb 45f 38f
2:00pm 1.6ft 3s 16 18 mph 997.4mb 47f 38f
1:00pm 1.6ft 3s 16 22 mph 997.3mb 47f 38f
12:00pm 1.6ft 3s 18 20 mph 998mb 47f 38f
11:00am 1ft 2s 16 20 mph 998mb 47f 38f
10:00am 1ft 2s 11 16 mph 998.8mb 47f 37f
9:00am 1ft 2s 11 13 mph 999.2mb 47f 37f
8:00am 1ft 2s 11 13 mph 999.8mb 47f 37f
7:00am 1ft 2s 11 13 mph 999.8mb 47f 38f
6:00am 0.7ft 3s 13 16 mph 1000.3mb 47f 38f
5:00am 0.7ft 2s 4 9 mph 999.9mb 47f 39f
4:00am 1ft 3s 7 9 mph 1000.8mb 47f 38f
3:00am 1.3ft 3s 11 13 mph 1001mb 47f 38f
2:00am 2ft 3s 16 20 mph 1001.8mb 47f 39f
1:00am 2ft 3s 18 22 mph 1002.3mb 47f 41f
12:00am 2.5ft 3s 20 27 mph 1003.3mb 47f 42f
Fri 11/17 11:00pm 2ft 3s 20 25 mph 1004.5mb 47f 42f
10:00pm 2ft 3s 20 25 mph 1005.7mb 47f 42f
9:00pm 2ft 3s 20 22 mph 1007.3mb 47f 42f
8:00pm 2ft 3s 18 22 mph 1008.5mb 47f 42f
7:00pm 2ft 4s 22 27 mph 1009.4mb 47f 42f
6:00pm 2.5ft 3s 18 22 mph 1010.9mb 47f 40f
5:00pm 2.5ft 3s 22 25 mph 1011.9mb 47f 38f
4:00pm 2.5ft 3s 22 25 mph 1013.3mb 47f 37f
3:00pm 2ft 3s 22 27 mph 1014.4mb 47f 36f
2:00pm 1.6ft 3s 18 22 mph 1016.5mb 47f 35f
1:00pm 2ft 3s 18 22 mph 1017.8mb 47f 34f
12:00pm 1.6ft 3s 20 25 mph 1018.8mb 47f 33f
11:00am 1.3ft 3s 18 25 mph 1020.3mb 47f 32f
10:00am 1.3ft 3s 13 18 mph 1022.8mb 47f 30f
9:00am 1ft 2s 13 20 mph 1023.3mb 47f 29f
8:00am 1ft 2s 11 16 mph 1024.6mb 47f 27f
7:00am 0.7ft 2s 9 13 mph 1025.5mb 47f 26f
6:00am 0.7ft 2s 9 16 mph 1025.7mb 47f 26f
5:00am 0.7ft 2s 7 13 mph 1025.9mb 47f 24f
4:00am 0.7ft 2s 9 13 mph 1026mb 47f 24f
3:00am 1ft 2s 9 13 mph 1025.9mb 47f 24f
2:00am 0.7ft 2s 11 16 mph 1025.8mb 47f 24f
1:00am 0.7ft 2s 9 13 mph 1025.9mb 47f 24f
12:00am 1ft 2s 9 16 mph 1026.3mb 47f 24f
Thu 11/16 11:00pm 1.3ft 3s 13 20 mph 1026.6mb 47f 24f
10:00pm 1.6ft 3s 16 20 mph 1025.3mb 47f 25f
9:00pm 2ft 3s 18 22 mph 1024.9mb 47f 26f
8:00pm 1.3ft 3s 18 22 mph 1024.6mb 47f 26f
7:00pm 1.6ft 3s 18 22 mph 1024.8mb 47f 27f